Time;durP1;ratioP1;P1;durP2;ratioP2;P2;SDS_P1;SDS_P2;PMS_P1;PMS_P2;Temp;Humidity;BMP_temperature;BMP_pressure;BME280_temperature;BME280_humidity;BME280_pressure;Samples;Min_cycle;Max_cycle;Signal;HPM_P1;HPM_P2
2022/07/24 00:00:58;;;;;;;11.48;6.88;;;;;;;;;;4991232;28;95340;-75
2022/07/24 00:03:26;;;;;;;13.40;6.88;;;;;;;;;;4994429;28;97097;-74
2022/07/24 00:05:55;;;;;;;9.65;6.90;;;;;;;;;;4991921;28;95229;-74
2022/07/24 00:08:21;;;;;;;10.60;6.95;;;;;;;;;;4989794;28;97248;-73
2022/07/24 00:10:47;;;;;;;10.73;6.93;;;;;;;;;;4993291;28;97308;-74
2022/07/24 00:13:14;;;;;;;8.90;6.65;;;;;;;;;;4992431;28;96892;-74
2022/07/24 00:15:40;;;;;;;10.98;6.85;;;;;;;;;;4994832;28;96691;-74
2022/07/24 00:18:07;;;;;;;11.00;6.78;;;;;;;;;;4993226;28;97180;-73
2022/07/24 00:20:33;;;;;;;8.57;6.35;;;;;;;;;;4995281;28;95211;-74
2022/07/24 00:22:59;;;;;;;14.07;7.07;;;;;;;;;;4993981;28;96878;-74
2022/07/24 00:25:26;;;;;;;8.88;6.80;;;;;;;;;;4997901;28;97356;-73
2022/07/24 00:27:52;;;;;;;9.52;6.47;;;;;;;;;;4992478;28;96806;-74
2022/07/24 00:30:18;;;;;;;15.68;7.07;;;;;;;;;;4993325;28;97342;-74
2022/07/24 00:32:45;;;;;;;14.05;7.63;;;;;;;;;;4995357;28;95795;-75
2022/07/24 00:35:13;;;;;;;12.70;9.18;;;;;;;;;;4993999;28;96909;-75
2022/07/24 00:37:39;;;;;;;14.07;10.35;;;;;;;;;;4994202;28;97494;-76
2022/07/24 00:40:06;;;;;;;12.65;8.65;;;;;;;;;;5009249;28;95358;-75
2022/07/24 00:42:32;;;;;;;12.45;8.32;;;;;;;;;;4998392;28;97099;-76
2022/07/24 00:44:59;;;;;;;8.93;6.75;;;;;;;;;;5004049;28;97658;-76
2022/07/24 00:47:25;;;;;;;9.48;6.40;;;;;;;;;;5010389;28;95357;-76
2022/07/24 00:49:52;;;;;;;9.65;6.50;;;;;;;;;;5013668;28;97979;-73
2022/07/24 00:52:18;;;;;;;10.63;6.60;;;;;;;;;;4997914;28;95449;-74
2022/07/24 00:54:44;;;;;;;7.70;5.90;;;;;;;;;;5001020;28;96869;-74
2022/07/24 00:57:11;;;;;;;9.77;6.68;;;;;;;;;;5004481;28;97434;-73
2022/07/24 00:59:37;;;;;;;10.43;7.30;;;;;;;;;;4998936;28;95319;-73
2022/07/24 01:02:03;;;;;;;11.07;6.78;;;;;;;;;;5010724;28;96643;-74
2022/07/24 01:04:30;;;;;;;10.88;6.90;;;;;;;;;;4996437;28;97019;-74
2022/07/24 01:06:56;;;;;;;10.15;6.15;;;;;;;;;;5003696;28;95406;-74
2022/07/24 01:09:23;;;;;;;12.25;7.28;;;;;;;;;;5003779;28;96395;-74
2022/07/24 01:11:51;;;;;;;9.57;7.10;;;;;;;;;;4993230;28;97111;-73
2022/07/24 01:14:17;;;;;;;9.13;7.07;;;;;;;;;;5009635;28;96728;-74
2022/07/24 01:16:44;;;;;;;10.65;7.60;;;;;;;;;;4992631;28;97347;-74
2022/07/24 01:19:11;;;;;;;12.93;7.28;;;;;;;;;;4992767;28;95695;-73
2022/07/24 01:21:37;;;;;;;9.55;7.40;;;;;;;;;;4998442;28;96761;-73
2022/07/24 01:24:04;;;;;;;10.32;8.00;;;;;;;;;;5007152;28;97440;-73
2022/07/24 01:26:31;;;;;;;13.95;7.85;;;;;;;;;;4990814;28;95350;-73
2022/07/24 01:28:58;;;;;;;13.98;7.80;;;;;;;;;;4993560;28;96854;-74
2022/07/24 01:31:24;;;;;;;11.38;7.65;;;;;;;;;;4995403;28;96272;-74
2022/07/24 01:33:50;;;;;;;13.23;7.85;;;;;;;;;;4993487;28;96148;-76
2022/07/24 01:36:17;;;;;;;13.27;9.02;;;;;;;;;;4992428;28;97345;-73
2022/07/24 01:38:43;;;;;;;11.95;7.78;;;;;;;;;;4990720;28;96795;-75
2022/07/24 01:41:09;;;;;;;18.38;8.90;;;;;;;;;;4990703;28;95854;-74
2022/07/24 01:43:36;;;;;;;12.07;8.40;;;;;;;;;;4993421;28;97958;-74
2022/07/24 01:46:02;;;;;;;15.57;9.00;;;;;;;;;;4991463;28;95218;-74
2022/07/24 01:48:29;;;;;;;12.68;8.63;;;;;;;;;;4991932;28;96327;-73
2022/07/24 01:50:55;;;;;;;11.38;8.57;;;;;;;;;;4996664;28;96239;-74
2022/07/24 01:53:22;;;;;;;16.15;8.55;;;;;;;;;;4993397;28;96854;-75
2022/07/24 01:55:51;;;;;;;11.20;8.57;;;;;;;;;;4999992;28;97154;-74
2022/07/24 01:58:18;;;;;;;14.02;8.48;;;;;;;;;;5002348;28;95077;-74
2022/07/24 02:00:44;;;;;;;14.40;9.85;;;;;;;;;;4991228;28;97026;-75
2022/07/24 02:03:11;;;;;;;13.82;9.10;;;;;;;;;;5009795;28;98010;-76
2022/07/24 02:05:37;;;;;;;13.02;9.70;;;;;;;;;;4997450;28;95465;-75
2022/07/24 02:08:04;;;;;;;12.57;9.70;;;;;;;;;;5003521;28;96861;-74
2022/07/24 02:10:31;;;;;;;17.63;10.48;;;;;;;;;;4991875;28;97752;-74
2022/07/24 02:12:57;;;;;;;19.92;11.38;;;;;;;;;;5011903;28;95691;-74
2022/07/24 02:15:24;;;;;;;24.05;11.02;;;;;;;;;;4974914;28;97439;-73
2022/07/24 02:17:53;;;;;;;19.05;10.88;;;;;;;;;;4999762;28;95395;-73
2022/07/24 02:20:20;;;;;;;16.55;11.10;;;;;;;;;;5000543;28;96903;-73
2022/07/24 02:22:46;;;;;;;15.00;10.93;;;;;;;;;;5006680;28;97347;-74
2022/07/24 02:25:13;;;;;;;20.60;11.48;;;;;;;;;;4996048;28;95403;-74
2022/07/24 02:27:39;;;;;;;19.90;12.07;;;;;;;;;;5006741;28;96747;-75
2022/07/24 02:30:07;;;;;;;20.80;12.50;;;;;;;;;;4989910;28;97775;-74
2022/07/24 02:32:34;;;;;;;16.30;11.25;;;;;;;;;;4993770;28;95346;-74
2022/07/24 02:35:00;;;;;;;19.20;11.98;;;;;;;;;;4995553;28;96847;-73
2022/07/24 02:37:32;;;;;;;16.17;10.90;;;;;;;;;;4991871;28;95552;-74
2022/07/24 02:39:58;;;;;;;17.45;11.73;;;;;;;;;;4991866;28;96850;-73
2022/07/24 02:42:25;;;;;;;17.35;12.18;;;;;;;;;;4989013;28;97337;-73
2022/07/24 02:44:51;;;;;;;23.08;13.15;;;;;;;;;;4992118;28;95403;-74
2022/07/24 02:47:17;;;;;;;19.48;12.88;;;;;;;;;;5002124;28;95907;-74
2022/07/24 02:49:44;;;;;;;22.50;12.48;;;;;;;;;;5001360;28;97420;-73
2022/07/24 02:52:10;;;;;;;19.40;13.95;;;;;;;;;;4992600;28;95353;-73
2022/07/24 02:54:36;;;;;;;18.65;13.48;;;;;;;;;;4992361;28;96711;-73
2022/07/24 02:57:03;;;;;;;18.05;12.88;;;;;;;;;;4993483;28;96474;-74
2022/07/24 02:59:29;;;;;;;19.65;13.43;;;;;;;;;;4992291;28;95691;-74
2022/07/24 03:01:55;;;;;;;20.80;13.95;;;;;;;;;;4990455;28;97537;-74
2022/07/24 03:04:22;;;;;;;20.65;13.88;;;;;;;;;;4995825;28;95442;-73
2022/07/24 03:06:49;;;;;;;19.90;15.02;;;;;;;;;;4992109;28;96780;-73
2022/07/24 03:09:15;;;;;;;25.08;14.70;;;;;;;;;;4990849;28;97357;-73
2022/07/24 03:11:42;;;;;;;21.02;14.13;;;;;;;;;;4991980;28;95534;-74
2022/07/24 03:14:08;;;;;;;19.13;13.50;;;;;;;;;;4992464;28;96804;-73
2022/07/24 03:16:34;;;;;;;19.02;13.30;;;;;;;;;;4990462;28;97454;-74
2022/07/24 03:19:04;;;;;;;21.65;13.77;;;;;;;;;;4993484;28;96141;-74
2022/07/24 03:21:31;;;;;;;24.80;13.95;;;;;;;;;;4990784;28;97297;-74
2022/07/24 03:24:13;;;;;;;24.27;15.38;;;;;;;;;;4991903;28;95335;-74
2022/07/24 03:26:39;;;;;;;23.52;15.18;;;;;;;;;;4990221;28;95780;-74
2022/07/24 03:29:05;;;;;;;22.20;14.95;;;;;;;;;;4991763;28;96360;-73
2022/07/24 03:31:33;;;;;;;25.15;14.50;;;;;;;;;;4991108;28;95050;-74
2022/07/24 03:33:59;;;;;;;22.42;14.38;;;;;;;;;;4987824;28;96716;-73
2022/07/24 03:36:25;;;;;;;23.92;15.23;;;;;;;;;;4991346;28;97712;-73
2022/07/24 03:38:52;;;;;;;24.98;14.98;;;;;;;;;;4991951;28;95333;-74
2022/07/24 03:41:18;;;;;;;22.42;14.45;;;;;;;;;;4994625;28;96858;-73
2022/07/24 20:13:04;;;;;;;5.05;2.70;;;;;;;;;;5045147;27;96208;-74
2022/07/24 20:15:31;;;;;;;4.28;2.67;;;;;;;;;;5020118;27;96509;-76
2022/07/24 20:17:57;;;;;;;6.22;2.90;;;;;;;;;;5031024;27;95227;-75
2022/07/24 20:20:24;;;;;;;8.05;2.50;;;;;;;;;;5029566;27;96317;-75
2022/07/24 20:22:51;;;;;;;10.32;2.47;;;;;;;;;;5030574;27;97034;-76
2022/07/24 20:25:18;;;;;;;3.72;2.60;;;;;;;;;;5017823;27;95491;-76
2022/07/24 20:27:44;;;;;;;4.95;2.80;;;;;;;;;;5038015;27;96837;-76
2022/07/24 20:30:12;;;;;;;13.68;2.92;;;;;;;;;;5025198;27;97365;-77
2022/07/24 20:32:38;;;;;;;4.28;2.67;;;;;;;;;;5028096;27;95613;-75
2022/07/24 20:35:05;;;;;;;7.10;2.70;;;;;;;;;;5027436;27;97348;-75
2022/07/24 20:37:33;;;;;;;7.70;2.67;;;;;;;;;;5022101;27;95207;-77
2022/07/24 20:40:00;;;;;;;6.35;2.83;;;;;;;;;;5026211;27;97098;-75
2022/07/24 20:42:26;;;;;;;6.05;3.00;;;;;;;;;;5033840;27;97689;-76
2022/07/24 20:44:53;;;;;;;6.93;2.85;;;;;;;;;;5033280;27;95281;-76
2022/07/24 20:47:20;;;;;;;5.38;3.17;;;;;;;;;;5031326;27;97513;-75
2022/07/24 20:49:46;;;;;;;15.25;3.30;;;;;;;;;;5030360;27;97497;-75
2022/07/24 20:52:14;;;;;;;5.97;3.75;;;;;;;;;;5013113;27;96254;-75
2022/07/24 20:54:40;;;;;;;10.82;3.30;;;;;;;;;;5023131;27;96835;-75
2022/07/24 20:57:07;;;;;;;4.72;2.92;;;;;;;;;;5034196;27;95284;-76
2022/07/24 20:59:33;;;;;;;14.77;3.60;;;;;;;;;;5022212;27;97156;-75
2022/07/24 21:01:59;;;;;;;9.60;3.67;;;;;;;;;;5025957;27;97963;-75
2022/07/24 21:04:26;;;;;;;12.07;3.30;;;;;;;;;;5014303;27;97283;-75
2022/07/24 21:06:53;;;;;;;5.80;3.22;;;;;;;;;;5023634;27;96854;-74
2022/07/24 21:09:19;;;;;;;5.47;3.40;;;;;;;;;;5026150;27;97335;-74
2022/07/24 21:11:45;;;;;;;11.45;3.80;;;;;;;;;;5013857;27;96934;-74
2022/07/24 21:14:12;;;;;;;5.68;3.08;;;;;;;;;;5026574;27;96740;-74
2022/07/24 21:16:38;;;;;;;5.70;3.70;;;;;;;;;;5033658;27;97661;-74
2022/07/24 21:19:05;;;;;;;6.28;3.28;;;;;;;;;;5028186;27;96681;-75
2022/07/24 21:21:31;;;;;;;8.00;3.45;;;;;;;;;;5022401;28;97357;-75
2022/07/24 21:23:57;;;;;;;10.15;3.70;;;;;;;;;;5009290;27;95562;-74
2022/07/24 21:26:24;;;;;;;9.73;3.70;;;;;;;;;;5007586;28;97075;-75
2022/07/24 21:28:50;;;;;;;5.38;3.70;;;;;;;;;;5002969;28;97346;-75
2022/07/24 21:31:16;;;;;;;9.10;3.65;;;;;;;;;;5010253;28;95366;-75
2022/07/24 21:33:47;;;;;;;5.57;3.45;;;;;;;;;;5002971;28;96745;-75
2022/07/24 21:36:13;;;;;;;5.57;3.40;;;;;;;;;;5008478;28;98016;-75
2022/07/24 21:38:40;;;;;;;7.28;3.47;;;;;;;;;;5028771;28;95531;-75
2022/07/24 21:41:07;;;;;;;13.13;3.90;;;;;;;;;;5010249;28;97393;-75
2022/07/24 21:43:33;;;;;;;9.07;3.85;;;;;;;;;;5019684;28;95389;-76
2022/07/24 21:46:00;;;;;;;6.75;3.70;;;;;;;;;;5005771;28;96883;-75
2022/07/24 21:48:27;;;;;;;5.40;3.30;;;;;;;;;;5005832;28;97678;-75
2022/07/24 21:50:53;;;;;;;10.55;3.65;;;;;;;;;;5011521;28;95236;-78
2022/07/24 21:53:20;;;;;;;9.18;3.83;;;;;;;;;;5004793;28;96848;-78
2022/07/24 21:55:46;;;;;;;7.38;3.90;;;;;;;;;;5000384;28;97421;-78
2022/07/24 21:58:13;;;;;;;5.88;3.80;;;;;;;;;;5011997;28;95484;-78
2022/07/24 22:00:42;;;;;;;6.13;4.10;;;;;;;;;;5005272;28;97145;-77
2022/07/24 22:03:09;;;;;;;11.55;4.00;;;;;;;;;;5005148;28;97070;-75
2022/07/24 22:05:36;;;;;;;7.82;4.03;;;;;;;;;;5014308;28;96831;-75
2022/07/24 22:08:03;;;;;;;9.80;4.70;;;;;;;;;;5006366;28;97691;-75
2022/07/24 22:10:29;;;;;;;17.30;5.05;;;;;;;;;;5007688;28;96277;-74
2022/07/24 22:12:56;;;;;;;10.45;4.43;;;;;;;;;;5016735;28;96905;-75
2022/07/24 22:15:22;;;;;;;6.82;4.30;;;;;;;;;;5013869;28;97344;-76
2022/07/24 22:17:48;;;;;;;7.60;4.40;;;;;;;;;;5019221;28;95298;-75
2022/07/24 22:20:15;;;;;;;7.15;3.88;;;;;;;;;;5020069;28;96742;-75
2022/07/24 22:22:41;;;;;;;6.22;4.35;;;;;;;;;;5017750;28;95473;-74
2022/07/24 22:25:08;;;;;;;5.95;4.00;;;;;;;;;;5034146;28;96773;-75
2022/07/24 22:27:34;;;;;;;6.22;4.22;;;;;;;;;;5028453;28;97672;-75
2022/07/24 22:30:01;;;;;;;6.10;3.90;;;;;;;;;;5018179;28;95424;-75
2022/07/24 22:32:27;;;;;;;6.30;4.40;;;;;;;;;;5018094;28;97325;-74
2022/07/24 22:34:54;;;;;;;13.02;4.63;;;;;;;;;;5028447;27;97390;-74
2022/07/24 22:37:21;;;;;;;8.07;4.15;;;;;;;;;;5019807;28;95404;-75
2022/07/24 22:39:48;;;;;;;6.18;3.80;;;;;;;;;;5024581;28;96858;-74
2022/07/24 22:42:14;;;;;;;5.35;3.83;;;;;;;;;;5024102;28;97587;-75
2022/07/24 22:44:41;;;;;;;7.97;3.88;;;;;;;;;;5034303;28;96794;-75
2022/07/24 22:47:08;;;;;;;7.78;3.70;;;;;;;;;;5032940;28;97368;-74
2022/07/24 22:49:36;;;;;;;10.45;3.60;;;;;;;;;;5025801;28;95221;-75
2022/07/24 22:52:05;;;;;;;16.23;4.05;;;;;;;;;;5027012;27;96862;-75
2022/07/24 22:54:32;;;;;;;8.65;4.15;;;;;;;;;;5026491;28;97424;-75
2022/07/24 22:56:59;;;;;;;5.97;4.18;;;;;;;;;;5031649;28;95381;-75
2022/07/24 22:59:26;;;;;;;11.15;3.85;;;;;;;;;;5020598;28;96680;-74
2022/07/24 23:01:52;;;;;;;7.88;4.30;;;;;;;;;;5032350;28;98121;-75
2022/07/24 23:04:19;;;;;;;8.15;4.05;;;;;;;;;;5038923;27;95444;-75
2022/07/24 23:06:45;;;;;;;7.82;4.00;;;;;;;;;;5032293;27;97705;-75
2022/07/24 23:09:12;;;;;;;8.25;3.83;;;;;;;;;;5009913;28;96861;-74
2022/07/24 23:11:38;;;;;;;6.00;3.80;;;;;;;;;;5018029;28;97997;-75
2022/07/24 23:14:04;;;;;;;8.57;4.43;;;;;;;;;;5032976;28;97521;-75
2022/07/24 23:16:31;;;;;;;13.30;3.70;;;;;;;;;;5025446;28;95438;-75
2022/07/24 23:18:58;;;;;;;5.70;3.75;;;;;;;;;;5029389;28;97559;-74
2022/07/24 23:21:24;;;;;;;8.48;4.22;;;;;;;;;;5025620;28;97284;-75
2022/07/24 23:23:51;;;;;;;9.80;4.38;;;;;;;;;;5013733;27;96902;-74
2022/07/24 23:26:17;;;;;;;8.52;4.47;;;;;;;;;;4997339;28;96840;-75
2022/07/24 23:28:43;;;;;;;12.55;4.50;;;;;;;;;;5015911;28;95781;-74
2022/07/24 23:31:10;;;;;;;6.22;3.92;;;;;;;;;;5019720;27;96807;-75
2022/07/24 23:33:36;;;;;;;6.65;4.20;;;;;;;;;;5012764;28;97482;-74
2022/07/24 23:36:03;;;;;;;12.55;4.30;;;;;;;;;;5012700;28;95467;-74
2022/07/24 23:38:29;;;;;;;15.65;4.82;;;;;;;;;;5012289;28;96739;-75
2022/07/24 23:40:55;;;;;;;19.92;4.35;;;;;;;;;;5025618;28;97675;-74
2022/07/24 23:43:22;;;;;;;8.85;4.43;;;;;;;;;;5031379;28;96955;-74
2022/07/24 23:45:48;;;;;;;6.38;4.20;;;;;;;;;;5033307;27;96785;-74
2022/07/24 23:48:15;;;;;;;6.28;3.97;;;;;;;;;;5036496;27;97492;-74
2022/07/24 23:50:41;;;;;;;6.10;4.30;;;;;;;;;;5017319;28;96887;-75
2022/07/24 23:53:08;;;;;;;6.97;4.30;;;;;;;;;;5024670;28;97751;-74
2022/07/24 23:55:34;;;;;;;7.43;4.05;;;;;;;;;;5024026;28;96824;-75
2022/07/24 23:58:01;;;;;;;6.30;4.47;;;;;;;;;;5028737;28;97005;-75
